This is the latest recevied weather packets stored in our database for station/object YC0TBU. If no packets are shown the sender has not sent any weather packets the latest 10 day(s).
| Time | Temp. | Humidity | Pressure | Rain* | Wind** | Luminosity | Snow |
|---|---|---|---|---|---|---|---|
| 1777344654 | 31.67° C | 64% | 1008 hPa | - | - | 0 W/m² | - |
| 1777344332 | 32.22° C | 64% | 1008 hPa | - | - | 0 W/m² | - |
| 1777344010 | 32.22° C | 62% | 1008 hPa | - | - | 0 W/m² | - |
| 1777343688 | 35° C | 54% | 1008 hPa | - | - | 0 W/m² | - |
| 1777343366 | 35.56° C | 53% | 1008 hPa | - | - | 0 W/m² | - |
| 1777343044 | 35° C | 53% | 1008 hPa | - | - | 0 W/m² | - |
| 1777342722 | 35° C | 53% | 1008 hPa | - | - | 0 W/m² | - |
| 1777342400 | 35° C | 53% | 1008 hPa | - | - | 0 W/m² | - |
| 1777342078 | 35° C | 53% | 1008 hPa | - | - | 0 W/m² | - |
| 1777341756 | 35° C | 53% | 1008 hPa | - | - | 0 W/m² | - |
| 1777341434 | 35° C | 53% | 1008 hPa | - | - | 0 W/m² | - |
| 1777341112 | 35° C | 54% | 1008 hPa | - | - | 0 W/m² | - |
| 1777340790 | 35° C | 54% | 1008 hPa | - | - | 0 W/m² | - |
| 1777340468 | 35° C | 54% | 1008 hPa | - | - | 0 W/m² | - |
| 1777340146 | 34.44° C | 54% | 1008 hPa | - | - | 0 W/m² | - |
| 1777339824 | 34.44° C | 55% | 1008 hPa | - | - | 0 W/m² | - |
| 1777339502 | 34.44° C | 55% | 1008 hPa | - | - | 0 W/m² | - |
| 1777339180 | 33.89° C | 56% | 1008 hPa | - | - | 0 W/m² | - |
| 1777338858 | 33.89° C | 57% | 1008 hPa | - | - | 0 W/m² | - |
| 1777338536 | 33.33° C | 59% | 1008 hPa | - | - | 0 W/m² | - |
| 1777338214 | 32.22° C | 61% | 1008 hPa | - | - | 0 W/m² | - |
| 1777337892 | 30.56° C | 67% | 1008 hPa | - | - | 0 W/m² | - |
| 1777337570 | 30.56° C | 67% | 1008 hPa | - | - | 0 W/m² | - |
| 1777337248 | 30.56° C | 66% | 1008 hPa | - | - | 0 W/m² | - |
| 1777336926 | 30.56° C | 66% | 1008 hPa | - | - | 0 W/m² | - |
* Rain since midnight (hover to see other rain measurements)
** Current wind speed in m/s (hover to see current wind gust speed)